Time;durP1;ratioP1;P1;durP2;ratioP2;P2;SDS_P1;SDS_P2;PMS_P1;PMS_P2;Temp;Humidity;BMP_temperature;BMP_pressure;BME280_temperature;BME280_humidity;BME280_pressure;Samples;Min_cycle;Max_cycle;Signal;HPM_P1;HPM_P2
2022/03/25 00:00:27;;;;;;;;;;;18.50;53.10;;;;;;5051494;28;823;-72
2022/03/25 00:02:53;;;;;;;;;;;18.50;53.10;;;;;;5051552;28;866;-72
2022/03/25 00:05:19;;;;;;;;;;;18.50;53.20;;;;;;5051291;28;909;-71
2022/03/25 00:07:44;;;;;;;;;;;18.40;53.10;;;;;;5052485;28;1197;-72
2022/03/25 00:10:10;;;;;;;;;;;18.40;53.10;;;;;;5051305;28;1393;-72
2022/03/25 00:12:35;;;;;;;;;;;18.40;53.20;;;;;;5052652;28;1076;-72
2022/03/25 00:15:01;;;;;;;;;;;18.40;53.20;;;;;;5051614;28;903;-72
2022/03/25 00:17:26;;;;;;;;;;;18.40;53.20;;;;;;5050928;28;1882;-72
2022/03/25 00:19:51;;;;;;;;;;;18.40;53.30;;;;;;5051218;28;931;-72
2022/03/25 00:22:17;;;;;;;;;;;18.40;53.30;;;;;;5052667;28;911;-73
2022/03/25 00:24:42;;;;;;;;;;;18.40;53.40;;;;;;5051303;28;795;-72
2022/03/25 00:27:09;;;;;;;;;;;18.40;53.40;;;;;;5034178;28;1361;-72
2022/03/25 00:29:34;;;;;;;;;;;18.40;53.40;;;;;;5052465;28;851;-73
2022/03/25 00:32:00;;;;;;;;;;;18.40;53.40;;;;;;5051193;28;1095;-72
2022/03/25 00:34:25;;;;;;;;;;;18.40;53.40;;;;;;5052292;28;879;-73
2022/03/25 00:36:51;;;;;;;;;;;18.40;54.00;;;;;;5051954;28;1897;-72
2022/03/25 00:39:16;;;;;;;;;;;18.40;53.50;;;;;;5051169;28;838;-72
2022/03/25 00:41:44;;;;;;;;;;;18.40;53.50;;;;;;5052405;28;828;-72
2022/03/25 00:44:09;;;;;;;;;;;18.40;53.50;;;;;;5052286;28;850;-73
2022/03/25 00:46:35;;;;;;;;;;;18.30;53.50;;;;;;5050708;28;1298;-72
2022/03/25 00:49:00;;;;;;;;;;;18.30;53.50;;;;;;5051063;28;818;-72
2022/03/25 00:51:26;;;;;;;;;;;18.40;53.60;;;;;;5054866;28;931;-73
2022/03/25 00:53:51;;;;;;;;;;;18.30;53.60;;;;;;5056042;28;780;-72
2022/03/25 00:56:17;;;;;;;;;;;18.30;53.60;;;;;;5054382;28;1101;-72
2022/03/25 00:58:42;;;;;;;;;;;18.30;53.60;;;;;;5055740;28;1906;-73
2022/03/25 01:01:08;;;;;;;;;;;18.30;53.70;;;;;;5054471;28;1050;-73
2022/03/25 01:03:34;;;;;;;;;;;18.30;53.70;;;;;;5055655;28;1013;-73
2022/03/25 01:06:00;;;;;;;;;;;18.30;53.70;;;;;;5055651;28;795;-73
2022/03/25 01:08:26;;;;;;;;;;;18.30;53.80;;;;;;5056883;28;1255;-72
2022/03/25 01:10:52;;;;;;;;;;;18.30;53.80;;;;;;5054894;28;862;-72
2022/03/25 01:13:17;;;;;;;;;;;18.30;53.80;;;;;;5055684;28;867;-72
2022/03/25 01:15:43;;;;;;;;;;;18.30;53.80;;;;;;5055322;28;828;-73
2022/03/25 01:18:08;;;;;;;;;;;18.30;53.80;;;;;;5055120;28;1906;-72
2022/03/25 01:20:33;;;;;;;;;;;18.30;53.90;;;;;;5054078;28;964;-72
2022/03/25 01:22:59;;;;;;;;;;;18.30;53.90;;;;;;5054086;28;894;-73
2022/03/25 01:25:25;;;;;;;;;;;18.30;53.90;;;;;;5053943;28;949;-72
2022/03/25 01:27:51;;;;;;;;;;;18.30;54.00;;;;;;5053749;28;1410;-73
2022/03/25 01:30:16;;;;;;;;;;;18.30;53.90;;;;;;5055045;28;843;-72
2022/03/25 01:32:42;;;;;;;;;;;18.30;53.90;;;;;;5055026;28;795;-72
2022/03/25 01:35:09;;;;;;;;;;;18.30;54.00;;;;;;5055082;28;859;-73
2022/03/25 01:37:34;;;;;;;;;;;18.30;54.00;;;;;;5054582;28;1961;-72
2022/03/25 01:40:00;;;;;;;;;;;18.30;53.90;;;;;;5055060;28;885;-72
2022/03/25 01:42:29;;;;;;;;;;;18.30;54.00;;;;;;5054953;28;882;-72
2022/03/25 01:44:54;;;;;;;;;;;18.30;54.00;;;;;;5054964;28;891;-73
2022/03/25 01:47:20;;;;;;;;;;;18.30;53.90;;;;;;5054383;28;1280;-72
2022/03/25 01:49:45;;;;;;;;;;;18.30;53.90;;;;;;5054776;28;808;-73
2022/03/25 01:52:11;;;;;;;;;;;18.30;53.90;;;;;;5054776;28;898;-70
2022/03/25 01:54:36;;;;;;;;;;;18.30;53.90;;;;;;5054710;28;923;-71
2022/03/25 01:57:05;;;;;;;;;;;18.40;53.90;;;;;;5054329;28;1902;-71
2022/03/25 01:59:30;;;;;;;;;;;18.40;53.90;;;;;;5053712;28;1080;-71
2022/03/25 02:01:56;;;;;;;;;;;18.40;53.90;;;;;;5054298;28;1013;-70
2022/03/25 02:04:22;;;;;;;;;;;18.40;53.90;;;;;;5054458;28;997;-71
2022/03/25 02:06:48;;;;;;;;;;;18.40;53.90;;;;;;5053113;28;1205;-71
2022/03/25 02:09:13;;;;;;;;;;;18.40;53.90;;;;;;5054440;28;835;-70
2022/03/25 02:11:39;;;;;;;;;;;18.40;53.90;;;;;;5054420;28;804;-71
2022/03/25 02:14:04;;;;;;;;;;;18.40;53.90;;;;;;5054387;28;776;-71
2022/03/25 02:16:48;;;;;;;;;;;18.40;53.90;;;;;;5052373;28;1295;-71
2022/03/25 02:19:16;;;;;;;;;;;18.40;53.90;;;;;;5036370;28;1262;-71
2022/03/25 02:21:42;;;;;;;;;;;18.40;53.90;;;;;;5054247;28;784;-71
2022/03/25 02:24:07;;;;;;;;;;;18.40;53.90;;;;;;5052942;28;1223;-71
2022/03/25 02:26:33;;;;;;;;;;;18.40;53.90;;;;;;5052501;28;1347;-71
2022/03/25 02:29:03;;;;;;;;;;;18.40;54.50;;;;;;5052643;28;1387;-72
2022/03/25 02:31:28;;;;;;;;;;;18.40;53.90;;;;;;5053905;28;861;-71
2022/03/25 02:33:57;;;;;;;;;;;18.40;53.90;;;;;;5052755;28;851;-71
2022/03/25 02:36:22;;;;;;;;;;;18.40;53.90;;;;;;5052405;28;1273;-71
2022/03/25 02:38:48;;;;;;;;;;;18.40;53.90;;;;;;5053688;28;1910;-71
2022/03/25 02:41:13;;;;;;;;;;;18.40;53.90;;;;;;5053740;28;933;-71
2022/03/25 02:43:38;;;;;;;;;;;18.40;53.90;;;;;;5052520;28;859;-71
2022/03/25 02:46:04;;;;;;;;;;;18.40;54.00;;;;;;5052171;28;907;-71
2022/03/25 02:48:30;;;;;;;;;;;18.40;53.90;;;;;;5053661;28;1201;-71
2022/03/25 02:50:55;;;;;;;;;;;18.40;53.90;;;;;;5053582;28;840;-71
2022/03/25 02:53:21;;;;;;;;;;;18.40;54.00;;;;;;5053533;28;934;-71
2022/03/25 02:55:46;;;;;;;;;;;18.40;54.00;;;;;;5053377;28;880;-71
2022/03/25 02:58:12;;;;;;;;;;;18.40;54.00;;;;;;5053230;28;1973;-71
2022/03/25 03:00:37;;;;;;;;;;;18.40;54.00;;;;;;5035623;28;1184;-71
2022/03/25 03:03:03;;;;;;;;;;;18.40;54.00;;;;;;5035581;28;939;-71
2022/03/25 03:05:28;;;;;;;;;;;18.40;54.00;;;;;;5053218;28;851;-71
2022/03/25 03:07:54;;;;;;;;;;;18.40;54.00;;;;;;5053370;28;1276;-71
2022/03/25 03:10:20;;;;;;;;;;;18.40;54.00;;;;;;5035619;28;1326;-71
2022/03/25 03:12:45;;;;;;;;;;;18.40;54.00;;;;;;5052717;28;1002;-71
2022/03/25 03:15:11;;;;;;;;;;;18.40;54.10;;;;;;5053505;28;797;-71
2022/03/25 03:17:37;;;;;;;;;;;18.40;54.10;;;;;;5052909;28;1901;-71
2022/03/25 03:20:03;;;;;;;;;;;18.40;54.10;;;;;;5052044;28;1005;-71
2022/03/25 03:22:28;;;;;;;;;;;18.40;54.10;;;;;;5051934;28;886;-71
2022/03/25 03:24:54;;;;;;;;;;;18.40;54.10;;;;;;5053136;28;885;-71
2022/03/25 03:27:19;;;;;;;;;;;18.40;54.10;;;;;;5052518;28;1272;-71
2022/03/25 03:29:45;;;;;;;;;;;18.40;54.10;;;;;;5052606;28;1010;-71
2022/03/25 03:32:10;;;;;;;;;;;18.40;54.10;;;;;;5053415;28;914;-71
2022/03/25 03:34:36;;;;;;;;;;;18.40;54.20;;;;;;5052022;28;696;-71
2022/03/25 03:37:01;;;;;;;;;;;18.40;54.20;;;;;;5065799;22;3467;-70
2022/03/25 03:39:27;;;;;;;;;;;18.40;54.20;;;;;;5051497;28;1306;-70
2022/03/25 03:41:52;;;;;;;;;;;18.40;54.20;;;;;;5052823;28;816;-70
2022/03/25 03:44:18;;;;;;;;;;;18.40;54.20;;;;;;5051673;28;704;-70
2022/03/25 03:46:43;;;;;;;;;;;18.40;54.20;;;;;;5052724;28;777;-70
2022/03/25 03:49:08;;;;;;;;;;;18.40;54.20;;;;;;5032268;28;1359;-70
2022/03/25 03:51:34;;;;;;;;;;;18.40;54.30;;;;;;5032770;28;896;-70
2022/03/25 03:54:00;;;;;;;;;;;18.40;54.30;;;;;;5031778;28;903;-70
2022/03/25 03:56:25;;;;;;;;;;;18.40;54.30;;;;;;5032505;28;784;-70
2022/03/25 03:58:51;;;;;;;;;;;18.40;54.30;;;;;;5032759;28;1914;-71
2022/03/25 04:01:17;;;;;;;;;;;18.40;54.30;;;;;;5031583;28;1085;-71
2022/03/25 04:03:42;;;;;;;;;;;18.40;54.30;;;;;;5032869;28;835;-69
2022/03/25 04:06:09;;;;;;;;;;;18.40;54.40;;;;;;5032899;28;788;-70
2022/03/25 04:08:34;;;;;;;;;;;18.40;54.40;;;;;;5031632;28;1292;-69
2022/03/25 04:11:00;;;;;;;;;;;18.40;54.40;;;;;;5032676;28;788;-69
2022/03/25 04:13:25;;;;;;;;;;;18.40;54.40;;;;;;5031474;28;765;-70
2022/03/25 04:15:51;;;;;;;;;;;18.40;54.40;;;;;;5032514;28;818;-69
2022/03/25 04:18:16;;;;;;;;;;;18.40;54.40;;;;;;5032584;28;1955;-70
2022/03/25 04:20:42;;;;;;;;;;;18.40;54.50;;;;;;5031449;28;867;-70
2022/03/25 04:23:07;;;;;;;;;;;18.30;54.40;;;;;;5032663;28;792;-70
2022/03/25 04:25:32;;;;;;;;;;;18.40;54.50;;;;;;5017243;28;1301;-69
2022/03/25 04:27:58;;;;;;;;;;;18.30;54.50;;;;;;5018339;28;1385;-70
2022/03/25 04:30:24;;;;;;;;;;;18.40;54.60;;;;;;5035451;28;859;-69
2022/03/25 04:32:50;;;;;;;;;;;18.30;55.10;;;;;;5035319;28;915;-70
2022/03/25 04:35:15;;;;;;;;;;;18.30;54.50;;;;;;5035099;28;815;-69
2022/03/25 04:37:41;;;;;;;;;;;18.30;54.50;;;;;;5034751;28;1894;-70
2022/03/25 04:40:09;;;;;;;;;;;18.30;54.50;;;;;;5034876;28;867;-69
2022/03/25 04:42:34;;;;;;;;;;;18.30;54.50;;;;;;5036380;28;824;-70
2022/03/25 04:45:00;;;;;;;;;;;18.30;54.50;;;;;;5018601;28;1517;-70
2022/03/25 04:47:25;;;;;;;;;;;18.30;54.50;;;;;;5034686;28;1201;-70
2022/03/25 04:49:51;;;;;;;;;;;18.30;54.50;;;;;;5036250;28;883;-70
2022/03/25 04:52:16;;;;;;;;;;;18.40;54.60;;;;;;5036003;28;831;-69
2022/03/25 04:54:42;;;;;;;;;;;18.40;54.60;;;;;;5018064;28;1254;-69
2022/03/25 04:57:07;;;;;;;;;;;18.30;54.50;;;;;;5035541;28;1910;-69
2022/03/25 04:59:33;;;;;;;;;;;18.30;54.60;;;;;;5018088;28;1193;-71
2022/03/25 05:01:58;;;;;;;;;;;18.30;54.60;;;;;;5034675;28;938;-69
2022/03/25 05:04:24;;;;;;;;;;;18.30;54.60;;;;;;5035804;28;903;-70
2022/03/25 05:06:50;;;;;;;;;;;18.30;54.60;;;;;;5035839;28;1276;-70
2022/03/25 05:09:17;;;;;;;;;;;18.30;54.60;;;;;;5034536;28;843;-70
2022/03/25 05:11:43;;;;;;;;;;;18.30;54.60;;;;;;5034372;28;844;-70
2022/03/25 05:14:09;;;;;;;;;;;18.30;54.60;;;;;;5035683;28;803;-69
2022/03/25 05:16:35;;;;;;;;;;;18.30;54.60;;;;;;5034076;28;874;-69
2022/03/25 05:19:00;;;;;;;;;;;18.30;54.70;;;;;;5035460;28;1906;-70
2022/03/25 05:21:26;;;;;;;;;;;18.30;54.70;;;;;;5035728;28;868;-70
2022/03/25 05:23:51;;;;;;;;;;;18.30;54.70;;;;;;5017615;28;1138;-70
2022/03/25 05:26:16;;;;;;;;;;;18.30;54.70;;;;;;5034915;28;994;-70
2022/03/25 05:28:42;;;;;;;;;;;18.30;54.70;;;;;;5017406;28;1295;-70
2022/03/25 05:31:07;;;;;;;;;;;18.30;54.70;;;;;;5035213;28;803;-70
2022/03/25 05:33:33;;;;;;;;;;;18.30;54.70;;;;;;5034301;28;897;-70
2022/03/25 05:35:58;;;;;;;;;;;18.30;54.70;;;;;;5034587;28;1215;-71
2022/03/25 05:38:24;;;;;;;;;;;18.30;54.80;;;;;;5033917;28;1906;-70
2022/03/25 05:40:49;;;;;;;;;;;18.30;54.70;;;;;;5034890;28;899;-70
2022/03/25 05:43:15;;;;;;;;;;;18.30;54.70;;;;;;5035143;28;836;-70
2022/03/25 05:45:40;;;;;;;;;;;18.30;54.70;;;;;;5034770;28;875;-69
2022/03/25 05:48:05;;;;;;;;;;;18.30;54.70;;;;;;5034861;28;1216;-70
2022/03/25 05:50:31;;;;;;;;;;;18.40;54.70;;;;;;5035006;28;775;-71
2022/03/25 05:52:56;;;;;;;;;;;18.40;54.60;;;;;;5035284;28;800;-69
2022/03/25 05:55:22;;;;;;;;;;;18.50;54.60;;;;;;5033770;28;859;-69
2022/03/25 05:57:47;;;;;;;;;;;18.50;54.50;;;;;;5034473;28;1906;-70
2022/03/25 06:00:14;;;;;;;;;;;18.50;54.30;;;;;;5034951;28;795;-69
2022/03/25 06:02:39;;;;;;;;;;;18.60;54.30;;;;;;5033631;28;843;-69
2022/03/25 06:05:06;;;;;;;;;;;18.60;54.10;;;;;;5033449;28;1169;-70
2022/03/25 06:07:35;;;;;;;;;;;18.60;54.00;;;;;;5034458;28;1203;-70
2022/03/25 06:10:01;;;;;;;;;;;18.70;54.00;;;;;;5034448;28;899;-70
2022/03/25 06:12:26;;;;;;;;;;;18.80;53.90;;;;;;5034898;28;711;-70
2022/03/25 06:14:51;;;;;;;;;;;18.80;53.80;;;;;;5034484;28;810;-70
2022/03/25 06:17:17;;;;;;;;;;;18.80;53.70;;;;;;5032972;28;1902;-70
2022/03/25 06:19:42;;;;;;;;;;;18.80;53.60;;;;;;5034351;28;832;-70
2022/03/25 06:22:08;;;;;;;;;;;18.80;53.60;;;;;;5016678;28;931;-70
2022/03/25 06:24:33;;;;;;;;;;;18.90;53.60;;;;;;5032933;28;927;-71
2022/03/25 06:26:59;;;;;;;;;;;18.90;53.60;;;;;;5033866;28;1260;-70
2022/03/25 06:29:24;;;;;;;;;;;18.90;53.50;;;;;;5033134;28;982;-69
2022/03/25 06:31:49;;;;;;;;;;;18.90;53.50;;;;;;5034258;28;851;-70
2022/03/25 06:34:20;;;;;;;;;;;18.90;53.50;;;;;;5034649;28;729;-70
2022/03/25 06:36:47;;;;;;;;;;;18.90;53.50;;;;;;5033836;28;1131;-70
2022/03/25 06:39:12;;;;;;;;;;;18.90;53.40;;;;;;5034359;28;1902;-69
2022/03/25 06:41:38;;;;;;;;;;;18.90;53.40;;;;;;5033891;28;891;-70
2022/03/25 06:44:03;;;;;;;;;;;18.90;53.40;;;;;;5034203;28;871;-70
2022/03/25 06:46:29;;;;;;;;;;;19.00;53.40;;;;;;5033408;28;863;-70
2022/03/25 06:48:54;;;;;;;;;;;18.90;53.40;;;;;;5033341;28;1224;-70
2022/03/25 06:51:20;;;;;;;;;;;19.00;53.40;;;;;;5033850;28;788;-70
2022/03/25 06:53:45;;;;;;;;;;;18.90;53.40;;;;;;5033557;28;789;-70
2022/03/25 06:56:11;;;;;;;;;;;19.00;53.40;;;;;;5016225;28;1578;-70
2022/03/25 06:58:37;;;;;;;;;;;19.00;53.40;;;;;;5033768;28;1910;-67
2022/03/25 07:01:03;;;;;;;;;;;19.00;53.40;;;;;;5032776;28;717;-68
2022/03/25 07:03:28;;;;;;;;;;;19.00;52.40;;;;;;5032423;28;1005;-68
2022/03/25 07:05:54;;;;;;;;;;;18.90;51.90;;;;;;5033402;28;1046;-70
2022/03/25 07:08:21;;;;;;;;;;;18.90;50.70;;;;;;5032084;28;1217;-69
2022/03/25 07:10:46;;;;;;;;;;;18.90;50.50;;;;;;5032133;28;867;-70
2022/03/25 07:13:12;;;;;;;;;;;18.90;50.50;;;;;;5033451;28;792;-69
2022/03/25 07:15:37;;;;;;;;;;;18.90;50.50;;;;;;5029865;28;2191;-69
2022/03/25 07:18:03;;;;;;;;;;;18.90;50.50;;;;;;5025042;28;2087;-69
2022/03/25 07:20:29;;;;;;;;;;;18.90;50.50;;;;;;5033065;28;1178;-69
2022/03/25 07:22:54;;;;;;;;;;;18.90;50.60;;;;;;5032966;28;1279;-70
2022/03/25 07:25:20;;;;;;;;;;;18.90;50.70;;;;;;5033216;28;844;-69
2022/03/25 07:27:46;;;;;;;;;;;18.90;50.80;;;;;;5040417;28;1287;-69
2022/03/25 07:30:11;;;;;;;;;;;18.90;50.90;;;;;;5032083;28;1016;-68
2022/03/25 07:32:37;;;;;;;;;;;19.00;51.10;;;;;;5032150;28;843;-69
2022/03/25 07:35:02;;;;;;;;;;;19.00;51.20;;;;;;5031999;28;846;-68
2022/03/25 07:37:28;;;;;;;;;;;19.00;51.30;;;;;;5031078;28;1902;-69
2022/03/25 07:39:53;;;;;;;;;;;19.00;51.40;;;;;;5033069;28;831;-68
2022/03/25 07:42:19;;;;;;;;;;;19.00;51.50;;;;;;5033230;28;1073;-67
2022/03/25 07:44:45;;;;;;;;;;;19.00;51.60;;;;;;5033016;28;879;-68
2022/03/25 07:47:12;;;;;;;;;;;19.00;51.60;;;;;;5032732;28;1291;-70
2022/03/25 07:49:39;;;;;;;;;;;19.00;51.70;;;;;;5031820;28;793;-70
2022/03/25 07:52:05;;;;;;;;;;;19.00;51.80;;;;;;5032767;28;907;-70
2022/03/25 07:54:31;;;;;;;;;;;19.00;51.90;;;;;;5031645;28;1289;-70
2022/03/25 07:56:58;;;;;;;;;;;19.00;51.90;;;;;;5030052;28;1914;-69
2022/03/25 07:59:28;;;;;;;;;;;19.00;52.00;;;;;;5016624;28;1509;-70
2022/03/25 08:01:54;;;;;;;;;;;19.10;52.90;;;;;;5035544;28;1221;-70
2022/03/25 08:04:21;;;;;;;;;;;19.10;53.30;;;;;;5035753;28;1252;-71
2022/03/25 08:06:46;;;;;;;;;;;19.10;53.50;;;;;;5035799;28;1310;-71
2022/03/25 08:09:12;;;;;;;;;;;19.20;53.40;;;;;;5035698;28;895;-70
2022/03/25 08:11:37;;;;;;;;;;;19.30;53.40;;;;;;5036730;28;792;-70
2022/03/25 08:14:03;;;;;;;;;;;19.40;53.60;;;;;;5035608;28;866;-70
2022/03/25 08:16:28;;;;;;;;;;;19.50;53.50;;;;;;5036402;28;811;-69
2022/03/25 08:18:54;;;;;;;;;;;19.60;53.30;;;;;;5036548;28;1961;-70
2022/03/25 08:21:19;;;;;;;;;;;19.60;53.10;;;;;;5035301;28;962;-70
2022/03/25 08:29:13;;;;;;;;;;;20.00;52.70;;;;;;5036448;28;661;-70
2022/03/25 08:31:38;;;;;;;;;;;20.00;52.60;;;;;;5036162;28;802;-70
2022/03/25 08:34:07;;;;;;;;;;;20.10;52.50;;;;;;5036299;28;816;-70
2022/03/25 08:36:32;;;;;;;;;;;20.20;52.40;;;;;;5036183;28;1099;-70
2022/03/25 08:38:57;;;;;;;;;;;20.20;52.30;;;;;;5036041;28;1907;-70
2022/03/25 08:41:23;;;;;;;;;;;20.30;52.30;;;;;;5018564;28;1493;-69
2022/03/25 08:43:48;;;;;;;;;;;20.30;52.30;;;;;;5036123;28;895;-70
2022/03/25 08:46:14;;;;;;;;;;;20.40;52.20;;;;;;5035870;28;895;-71
2022/03/25 08:48:39;;;;;;;;;;;20.40;52.50;;;;;;5034789;28;1201;-69
2022/03/25 08:51:05;;;;;;;;;;;20.50;52.50;;;;;;5036065;28;928;-70
2022/03/25 08:53:30;;;;;;;;;;;20.50;52.50;;;;;;5034731;28;828;-70
2022/03/25 08:55:56;;;;;;;;;;;20.50;52.40;;;;;;5035686;28;931;-70
2022/03/25 08:58:21;;;;;;;;;;;20.50;52.60;;;;;;5035741;28;1968;-69
2022/03/25 09:00:46;;;;;;;;;;;20.50;52.50;;;;;;5035659;28;824;-70
2022/03/25 09:03:12;;;;;;;;;;;20.50;52.60;;;;;;5035826;28;951;-69
2022/03/25 09:05:38;;;;;;;;;;;20.50;52.70;;;;;;5035470;28;819;-69
2022/03/25 09:08:04;;;;;;;;;;;20.50;52.80;;;;;;5014721;28;2321;-68
2022/03/25 09:10:29;;;;;;;;;;;20.50;53.00;;;;;;5022507;28;1936;-69
2022/03/25 09:12:54;;;;;;;;;;;20.50;53.10;;;;;;5028576;28;2170;-69
2022/03/25 09:15:22;;;;;;;;;;;20.50;53.20;;;;;;5030469;28;2042;-69
2022/03/25 09:17:49;;;;;;;;;;;20.50;53.40;;;;;;5044047;28;1883;-69
2022/03/25 09:20:14;;;;;;;;;;;20.50;53.50;;;;;;5042494;28;1031;-69
2022/03/25 09:22:40;;;;;;;;;;;20.50;53.70;;;;;;5050921;28;811;-70
2022/03/25 09:25:07;;;;;;;;;;;20.50;53.80;;;;;;5035369;28;811;-69
2022/03/25 09:27:32;;;;;;;;;;;20.50;53.80;;;;;;5044366;28;1284;-70
2022/03/25 09:29:58;;;;;;;;;;;20.50;54.00;;;;;;5034685;28;804;-69
2022/03/25 09:32:23;;;;;;;;;;;20.50;54.00;;;;;;5034073;28;799;-69
2022/03/25 09:37:36;;;;;;;;;;;20.50;54.00;;;;;;5047232;23;2145;-73
2022/03/25 09:40:04;;;;;;;;;;;20.50;54.10;;;;;;5031583;28;1272;-73
2022/03/25 09:42:30;;;;;;;;;;;20.40;54.10;;;;;;5033003;28;1319;-73
2022/03/25 09:44:56;;;;;;;;;;;20.40;54.20;;;;;;5049217;28;1205;-73
2022/03/25 09:47:21;;;;;;;;;;;20.40;54.10;;;;;;5032589;28;696;-73
2022/03/25 09:49:46;;;;;;;;;;;20.40;54.30;;;;;;5029359;28;1802;-73
2022/03/25 09:52:12;;;;;;;;;;;20.40;54.30;;;;;;5028464;28;1927;-74
2022/03/25 09:54:37;;;;;;;;;;;20.40;54.40;;;;;;5032031;28;1293;-74
2022/03/25 09:57:03;;;;;;;;;;;20.40;54.30;;;;;;5015039;28;1910;-74
2022/03/25 09:59:28;;;;;;;;;;;20.40;54.30;;;;;;5029213;28;1829;-73
2022/03/25 10:01:54;;;;;;;;;;;20.40;54.40;;;;;;5041369;28;1151;-73
2022/03/25 10:04:57;;;;;;;;;;;20.40;54.40;;;;;;5032532;28;1357;-72
2022/03/25 10:07:24;;;;;;;;;;;20.40;54.60;;;;;;5010854;28;1260;-73
2022/03/25 10:09:50;;;;;;;;;;;20.40;54.70;;;;;;5028230;28;1359;-73
2022/03/25 10:12:19;;;;;;;;;;;20.40;54.80;;;;;;5032460;28;1383;-75
2022/03/25 10:14:46;;;;;;;;;;;20.30;54.90;;;;;;5032006;28;1227;-72
2022/03/25 10:17:11;;;;;;;;;;;20.30;54.80;;;;;;5032870;28;1902;-72
2022/03/25 10:19:37;;;;;;;;;;;20.30;54.90;;;;;;5015300;28;885;-72
2022/03/25 10:22:02;;;;;;;;;;;20.30;54.90;;;;;;5027153;28;1387;-70
2022/03/25 10:24:37;;;;;;;;;;;20.30;54.90;;;;;;5027222;28;1349;-71
2022/03/25 10:27:04;;;;;;;;;;;20.30;55.00;;;;;;5030811;28;1179;-72
2022/03/25 10:29:29;;;;;;;;;;;20.30;55.00;;;;;;5031436;28;1361;-72
2022/03/25 10:32:11;;;;;;;;;;;20.20;55.10;;;;;;5032715;28;1055;-72
2022/03/25 10:34:37;;;;;;;;;;;20.20;55.10;;;;;;5026274;28;1721;-78
2022/03/25 10:37:03;;;;;;;;;;;20.20;55.40;;;;;;5011280;28;1955;-73
2022/03/25 10:39:28;;;;;;;;;;;20.20;55.40;;;;;;5011721;28;1319;-74
2022/03/25 10:41:56;;;;;;;;;;;20.20;55.50;;;;;;5024674;28;1952;-73
2022/03/25 10:44:30;;;;;;;;;;;20.20;55.50;;;;;;5045680;28;1289;-73
2022/03/25 10:46:55;;;;;;;;;;;20.10;55.60;;;;;;5030538;28;1380;-75
2022/03/25 10:49:21;;;;;;;;;;;20.10;55.60;;;;;;5032470;28;782;-77
2022/03/25 10:51:53;;;;;;;;;;;20.20;55.70;;;;;;5031194;28;885;-74
2022/03/25 10:54:21;;;;;;;;;;;20.20;55.70;;;;;;5028439;28;1894;-76
2022/03/25 10:56:48;;;;;;;;;;;20.10;55.70;;;;;;5012535;28;1163;-76
2022/03/25 10:59:22;;;;;;;;;;;20.10;55.70;;;;;;5032029;28;1957;-74
2022/03/25 11:01:52;;;;;;;;;;;20.10;55.80;;;;;;5032587;28;814;-77
2022/03/25 11:04:17;;;;;;;;;;;20.10;55.80;;;;;;5014323;28;1210;-75
2022/03/25 11:06:44;;;;;;;;;;;20.10;55.90;;;;;;5030654;28;1215;-75
2022/03/25 11:09:10;;;;;;;;;;;20.00;55.90;;;;;;5032306;28;833;-76
2022/03/25 11:11:36;;;;;;;;;;;20.00;55.90;;;;;;5014245;28;882;-74
2022/03/25 11:14:04;;;;;;;;;;;20.00;56.10;;;;;;5030525;28;1222;-74
2022/03/25 11:16:29;;;;;;;;;;;20.00;56.10;;;;;;5030871;28;858;-75
2022/03/25 11:18:54;;;;;;;;;;;20.00;56.20;;;;;;5013553;28;1902;-75
2022/03/25 11:21:20;;;;;;;;;;;20.00;56.30;;;;;;5014376;28;1188;-75
2022/03/25 11:23:46;;;;;;;;;;;19.90;56.20;;;;;;5030882;28;1236;-75
2022/03/25 11:26:13;;;;;;;;;;;19.90;56.30;;;;;;5030489;28;782;-75
2022/03/25 11:28:38;;;;;;;;;;;19.90;56.40;;;;;;5031569;28;1143;-76
2022/03/25 11:31:05;;;;;;;;;;;19.90;56.40;;;;;;5030139;28;905;-75
2022/03/25 11:33:30;;;;;;;;;;;19.90;56.50;;;;;;5027563;28;1301;-74
2022/03/25 11:36:13;;;;;;;;;;;19.90;56.50;;;;;;5028576;28;1154;-74
2022/03/25 11:38:38;;;;;;;;;;;19.90;56.60;;;;;;5028309;28;1898;-71
2022/03/25 11:41:22;;;;;;;;;;;19.90;56.80;;;;;;5031324;28;897;-73
2022/03/25 11:44:06;;;;;;;;;;;19.90;56.90;;;;;;5031655;28;1219;-73
2022/03/25 11:46:31;;;;;;;;;;;19.90;56.90;;;;;;5021578;28;1746;-71
2022/03/25 11:49:03;;;;;;;;;;;19.80;56.90;;;;;;5030090;28;1175;-71
2022/03/25 11:51:29;;;;;;;;;;;19.80;56.90;;;;;;5030187;28;1399;-71
2022/03/25 11:53:55;;;;;;;;;;;19.80;56.90;;;;;;5013662;28;1603;-74
2022/03/25 11:56:20;;;;;;;;;;;19.80;57.00;;;;;;5014118;28;1391;-74
2022/03/25 11:58:56;;;;;;;;;;;19.80;57.00;;;;;;5032180;28;1914;-74
2022/03/25 12:01:22;;;;;;;;;;;19.80;57.00;;;;;;5030576;28;927;-76
2022/03/25 12:03:49;;;;;;;;;;;19.80;57.10;;;;;;5031714;28;1220;-71
2022/03/25 12:06:21;;;;;;;;;;;19.80;57.10;;;;;;5029469;28;795;-72
2022/03/25 12:09:07;;;;;;;;;;;19.80;57.10;;;;;;5011919;28;1192;-72
2022/03/25 12:11:51;;;;;;;;;;;19.80;57.20;;;;;;5030456;28;850;-72
2022/03/25 12:14:20;;;;;;;;;;;19.80;57.20;;;;;;5029793;28;1380;-72
2022/03/25 12:16:45;;;;;;;;;;;19.80;57.30;;;;;;5031109;28;806;-74
2022/03/25 12:19:23;;;;;;;;;;;19.80;57.30;;;;;;5031083;28;1898;-74
2022/03/25 12:21:48;;;;;;;;;;;19.80;57.30;;;;;;5030188;28;1117;-72
2022/03/25 12:24:14;;;;;;;;;;;19.70;57.20;;;;;;5019463;28;1698;-72
2022/03/25 12:26:40;;;;;;;;;;;19.70;57.20;;;;;;5012442;28;1499;-73
2022/03/25 12:29:06;;;;;;;;;;;19.70;57.30;;;;;;5029472;28;824;-72
2022/03/25 12:31:31;;;;;;;;;;;19.70;57.30;;;;;;5030013;28;1248;-72
2022/03/25 12:33:58;;;;;;;;;;;19.70;57.40;;;;;;5031200;28;1218;-72
2022/03/25 12:36:23;;;;;;;;;;;19.70;57.40;;;;;;5013342;28;1172;-72
2022/03/25 12:38:49;;;;;;;;;;;19.70;57.40;;;;;;5013204;28;1976;-72
2022/03/25 12:41:28;;;;;;;;;;;19.70;57.40;;;;;;5029837;28;1051;-72
2022/03/25 12:44:00;;;;;;;;;;;19.70;57.60;;;;;;5011614;28;1228;-72
2022/03/25 12:46:25;;;;;;;;;;;19.70;57.70;;;;;;5013154;28;869;-72
2022/03/25 12:48:51;;;;;;;;;;;19.70;58.30;;;;;;5030762;28;782;-72
2022/03/25 12:51:20;;;;;;;;;;;19.60;57.70;;;;;;5030054;28;802;-72
2022/03/25 12:53:47;;;;;;;;;;;19.60;57.70;;;;;;5030448;28;1213;-72
2022/03/25 12:56:13;;;;;;;;;;;19.60;57.80;;;;;;5014180;28;688;-72
2022/03/25 12:58:39;;;;;;;;;;;19.60;57.90;;;;;;5013744;28;1896;-73
2022/03/25 13:01:05;;;;;;;;;;;19.60;57.90;;;;;;5013163;28;1239;-74
2022/03/25 13:03:31;;;;;;;;;;;19.60;57.90;;;;;;5030453;28;1208;-74
2022/03/25 13:05:57;;;;;;;;;;;19.60;57.60;;;;;;5029559;28;814;-74
2022/03/25 13:08:23;;;;;;;;;;;19.50;57.00;;;;;;5014450;28;829;-75
2022/03/25 13:10:51;;;;;;;;;;;19.50;56.50;;;;;;5013252;28;1164;-75
2022/03/25 13:13:17;;;;;;;;;;;19.50;56.30;;;;;;5012878;28;1403;-74
2022/03/25 13:15:45;;;;;;;;;;;19.50;56.00;;;;;;5014729;28;838;-75
2022/03/25 13:18:12;;;;;;;;;;;19.50;55.70;;;;;;5032911;28;1899;-76
2022/03/25 13:20:41;;;;;;;;;;;19.40;55.50;;;;;;5033726;28;1063;-76
2022/03/25 13:23:07;;;;;;;;;;;19.40;55.50;;;;;;5032625;28;1218;-76
2022/03/25 13:25:39;;;;;;;;;;;19.40;55.40;;;;;;5033681;28;837;-75
2022/03/25 13:28:11;;;;;;;;;;;19.40;55.30;;;;;;5015934;28;1317;-75
2022/03/25 13:30:40;;;;;;;;;;;19.40;55.20;;;;;;5016338;28;1287;-75
2022/03/25 13:33:06;;;;;;;;;;;19.40;55.00;;;;;;5016506;28;1199;-75
2022/03/25 13:35:45;;;;;;;;;;;19.30;54.90;;;;;;5032371;28;1166;-75
2022/03/25 13:38:11;;;;;;;;;;;19.30;54.90;;;;;;5032252;28;1883;-75
2022/03/25 13:40:44;;;;;;;;;;;19.30;54.70;;;;;;5032885;28;837;-75
2022/03/25 13:43:12;;;;;;;;;;;19.30;54.70;;;;;;5032832;28;1178;-76
2022/03/25 13:45:38;;;;;;;;;;;19.20;54.70;;;;;;5032291;28;845;-72
2022/03/25 13:48:14;;;;;;;;;;;19.20;54.70;;;;;;5018027;28;1076;-76
2022/03/25 13:50:46;;;;;;;;;;;19.20;54.20;;;;;;5030860;28;835;-76
2022/03/25 13:53:14;;;;;;;;;;;19.20;54.20;;;;;;5031695;28;1216;-76
2022/03/25 13:55:40;;;;;;;;;;;19.20;54.30;;;;;;5031481;28;968;-76
2022/03/25 13:58:13;;;;;;;;;;;19.20;55.00;;;;;;5031590;28;1971;-75
2022/03/25 14:00:39;;;;;;;;;;;19.10;54.40;;;;;;5032658;28;829;-76
2022/03/25 14:03:05;;;;;;;;;;;19.10;54.50;;;;;;5032060;28;1150;-77
2022/03/25 14:05:36;;;;;;;;;;;19.10;54.40;;;;;;5031741;28;1315;-76
2022/03/25 14:08:05;;;;;;;;;;;19.10;54.40;;;;;;5032428;28;739;-76
2022/03/25 14:10:31;;;;;;;;;;;19.10;54.30;;;;;;5033648;28;829;-75
2022/03/25 14:13:07;;;;;;;;;;;19.10;54.30;;;;;;5031713;28;869;-75
2022/03/25 14:15:32;;;;;;;;;;;19.10;54.30;;;;;;5031851;28;843;-75
2022/03/25 14:17:57;;;;;;;;;;;19.00;54.20;;;;;;5014865;28;1902;-76
2022/03/25 14:20:24;;;;;;;;;;;19.00;54.20;;;;;;5031875;28;826;-75
2022/03/25 14:22:51;;;;;;;;;;;19.00;54.10;;;;;;5031737;28;825;-76
2022/03/25 14:25:16;;;;;;;;;;;19.00;54.10;;;;;;5031664;28;1168;-76
2022/03/25 14:27:42;;;;;;;;;;;19.00;54.20;;;;;;5030847;28;1242;-76
2022/03/25 14:30:08;;;;;;;;;;;19.00;54.10;;;;;;5032850;28;1074;-76
2022/03/25 14:32:33;;;;;;;;;;;19.00;54.00;;;;;;5031050;28;1440;-76
2022/03/25 14:34:59;;;;;;;;;;;18.90;54.00;;;;;;5014981;28;1208;-76
2022/03/25 14:37:24;;;;;;;;;;;18.90;53.80;;;;;;5031128;28;1914;-77
2022/03/25 14:39:51;;;;;;;;;;;18.90;53.80;;;;;;5024696;28;1306;-81